Time;durP1;ratioP1;P1;durP2;ratioP2;P2;SDS_P1;SDS_P2;PMS_P1;PMS_P2;Temp;Humidity;BMP_temperature;BMP_pressure;BME280_temperature;BME280_humidity;BME280_pressure;Samples;Min_cycle;Max_cycle;Signal;HPM_P1;HPM_P2
2022/01/16 00:04:55;;;;;;;37.80;16.30;;;;;;;;;;6100734;23;20081;-90
2022/01/16 00:07:22;;;;;;;46.00;21.13;;;;;;;;;;6076759;23;20104;-90
2022/01/16 00:09:48;;;;;;;45.78;20.40;;;;;;;;;;6076995;23;20344;-89
2022/01/16 00:12:18;;;;;;;56.20;23.17;;;;;;;;;;6076465;23;20021;-89
2022/01/16 00:14:44;;;;;;;60.75;21.63;;;;;;;;;;6076615;23;20296;-89
2022/01/16 00:17:10;;;;;;;49.05;21.52;;;;;;;;;;6076582;23;20460;-89
2022/01/16 00:19:36;;;;;;;49.38;20.42;;;;;;;;;;6075875;23;20014;-89
2022/01/16 00:22:11;;;;;;;48.25;19.80;;;;;;;;;;6076038;23;20527;-90
2022/01/16 00:24:37;;;;;;;48.13;22.08;;;;;;;;;;6076366;23;20018;-90
2022/01/16 00:27:03;;;;;;;55.95;22.27;;;;;;;;;;6076368;23;20093;-90
2022/01/16 00:29:31;;;;;;;55.45;22.42;;;;;;;;;;6076441;23;20095;-90
2022/01/16 00:31:57;;;;;;;55.53;23.27;;;;;;;;;;6076405;23;20021;-89
2022/01/16 00:34:23;;;;;;;52.80;24.30;;;;;;;;;;6076316;23;20076;-90
2022/01/16 00:36:49;;;;;;;67.72;25.17;;;;;;;;;;6076524;23;20022;-89
2022/01/16 00:39:15;;;;;;;51.78;22.08;;;;;;;;;;6125358;23;20018;-89
2022/01/16 00:41:42;;;;;;;54.83;24.02;;;;;;;;;;6120545;23;20020;-89
2022/01/16 00:44:08;;;;;;;57.35;23.77;;;;;;;;;;6215620;23;20020;-89
2022/01/16 00:46:34;;;;;;;56.97;25.60;;;;;;;;;;6190764;23;20035;-89
2022/01/16 00:49:00;;;;;;;57.28;23.35;;;;;;;;;;6215214;23;20021;-89
2022/01/16 00:51:26;;;;;;;57.50;24.15;;;;;;;;;;6189875;23;20017;-89
2022/01/16 00:53:52;;;;;;;54.08;25.33;;;;;;;;;;6190539;23;20082;-90
2022/01/16 00:56:18;;;;;;;57.63;26.45;;;;;;;;;;6190333;23;20021;-91
2022/01/16 00:58:45;;;;;;;61.25;26.05;;;;;;;;;;6190303;23;20029;-92
2022/01/16 01:01:11;;;;;;;51.85;26.95;;;;;;;;;;6189987;23;20126;-91
2022/01/16 01:03:37;;;;;;;57.50;26.15;;;;;;;;;;6189732;23;20027;-90
2022/01/16 01:06:03;;;;;;;63.88;29.13;;;;;;;;;;6190217;23;20458;-91
2022/01/16 01:08:30;;;;;;;64.53;28.67;;;;;;;;;;6190349;23;20342;-91
2022/01/16 01:10:58;;;;;;;64.03;27.63;;;;;;;;;;6190165;23;20024;-91
2022/01/16 01:13:32;;;;;;;59.03;26.02;;;;;;;;;;6190467;23;20124;-91
2022/01/16 01:16:03;;;;;;;66.80;28.42;;;;;;;;;;6190210;23;20524;-89
2022/01/16 01:18:29;;;;;;;51.55;24.33;;;;;;;;;;6190811;23;20096;-91
2022/01/16 01:20:57;;;;;;;46.53;22.80;;;;;;;;;;6191510;23;20083;-91
2022/01/16 01:23:23;;;;;;;62.47;27.58;;;;;;;;;;6191025;23;20024;-91
2022/01/16 01:25:49;;;;;;;61.28;27.00;;;;;;;;;;6189487;23;20048;-91
2022/01/16 01:28:15;;;;;;;62.78;29.38;;;;;;;;;;6190375;23;20078;-91
2022/01/16 01:30:44;;;;;;;57.83;27.92;;;;;;;;;;6214758;23;20016;-90
2022/01/16 01:33:13;;;;;;;57.22;25.52;;;;;;;;;;6189854;23;20085;-89
2022/01/16 01:35:39;;;;;;;59.22;26.88;;;;;;;;;;6214974;23;20020;-89
2022/01/16 01:38:10;;;;;;;65.47;28.08;;;;;;;;;;6189402;23;20385;-89
2022/01/16 01:40:37;;;;;;;55.85;27.10;;;;;;;;;;6189699;23;20055;-90
2022/01/16 01:51:14;;;;;;;65.50;28.98;;;;;;;;;;6215494;23;20334;-90
2022/01/16 01:53:40;;;;;;;72.38;33.28;;;;;;;;;;6189615;23;20106;-90
2022/01/16 01:56:08;;;;;;;69.38;29.67;;;;;;;;;;6214800;23;20021;-89
2022/01/16 01:58:34;;;;;;;75.95;33.70;;;;;;;;;;6214549;23;20013;-90
2022/01/16 02:01:00;;;;;;;68.05;30.75;;;;;;;;;;6189634;23;20083;-90
2022/01/16 02:03:59;;;;;;;71.68;29.02;;;;;;;;;;6213811;23;20091;-89
2022/01/16 02:06:20;;;;;;;69.32;30.85;;;;;;;;;;6208940;23;20028;-90
2022/01/16 02:08:47;;;;;;;79.10;30.15;;;;;;;;;;6189513;23;20040;-90
2022/01/16 02:11:14;;;;;;;70.57;31.00;;;;;;;;;;6191024;23;20025;-89
2022/01/16 02:14:02;;;;;;;69.63;29.13;;;;;;;;;;6191982;23;20066;-89
2022/01/16 02:35:36;;;;;;;;;;;2.50;99.90;;;;;;6217621;23;20020;-89
2022/01/16 02:38:04;;;;;;;79.28;31.42;;;;;;;;;;6190993;23;19978;-89
2022/01/16 02:40:31;;;;;;;82.88;32.25;;;;;;;;;;6217123;23;20044;-89
2022/01/16 02:42:57;;;;;;;80.97;29.48;;;;;;;;;;6191234;23;20016;-91
2022/01/16 02:45:31;;;;;;;83.28;30.60;;;;;;;;;;6192475;23;20087;-90
2022/01/16 02:47:59;;;;;;;84.25;33.92;;;;;;;;;;6191726;23;20016;-90
2022/01/16 02:50:25;;;;;;;81.10;32.55;;;;;;;;;;6191612;23;20020;-90
2022/01/16 02:52:51;;;;;;;74.43;27.40;;;;;;;;;;6190898;23;20323;-91
2022/01/16 02:55:20;;;;;;;87.05;32.65;;;;;;;;;;6191456;23;20039;-91
2022/01/16 02:57:47;;;;;;;70.25;29.10;;;;;;;;;;6191425;23;20029;-90
2022/01/16 03:00:13;;;;;;;80.72;31.05;;;;;;;;;;6192358;23;20024;-91
2022/01/16 03:02:39;;;;;;;86.70;31.50;;;;;;;;;;6191474;23;20464;-90
2022/01/16 03:05:05;;;;;;;76.28;31.27;;;;;;;;;;6191053;23;20454;-90
2022/01/16 03:07:32;;;;;;;77.30;29.95;;;;;;;;;;6191363;23;20035;-91
2022/01/16 03:10:41;;;;;;;81.38;31.55;;;;;;;;;;6190838;23;20016;-91
2022/01/16 03:13:08;;;;;;;87.10;31.50;;;;;;;;;;6191382;23;20023;-90
2022/01/16 03:15:36;;;;;;;88.75;33.42;;;;;;;;;;6191621;23;20012;-91
2022/01/16 03:23:15;;;;;;;75.07;30.52;;;;;;;;;;6215897;23;20536;-90
2022/01/16 03:25:41;;;;;;;86.75;29.40;;;;;;;;;;6191726;23;20019;-90
2022/01/16 03:28:07;;;;;;;88.57;32.47;;;;;;;;;;6190979;23;20020;-90
2022/01/16 03:30:33;;;;;;;95.80;31.48;;;;;;;;;;6190568;23;20023;-89
2022/01/16 03:32:59;;;;;;;83.03;29.67;;;;;;;;;;6190287;23;20350;-89
2022/01/16 03:35:25;;;;;;;79.90;30.63;;;;;;;;;;6191473;23;20338;-89
2022/01/16 03:37:51;;;;;;;81.35;32.50;;;;;;;;;;6189429;23;20024;-89
2022/01/16 03:40:20;;;;;;;79.93;30.05;;;;;;;;;;6190053;23;20020;-89
2022/01/16 03:42:47;;;;;;;80.80;31.65;;;;;;;;;;6213705;23;20012;-90
2022/01/16 03:45:13;;;;;;;86.45;32.85;;;;;;;;;;6189292;23;20027;-89
2022/01/16 03:47:40;;;;;;;78.10;31.55;;;;;;;;;;6214298;23;20013;-89
2022/01/16 03:50:06;;;;;;;67.78;28.60;;;;;;;;;;6190040;23;20100;-89
2022/01/16 03:52:32;;;;;;;78.63;29.65;;;;;;;;;;6188428;23;20024;-89
2022/01/16 03:54:58;;;;;;;100.07;34.20;;;;;;;;;;6188832;23;20350;-89
2022/01/16 03:57:24;;;;;;;99.43;33.75;;;;;;;;;;6189147;23;20012;-89
2022/01/16 03:59:50;;;;;;;76.43;31.13;;;;;;;;;;6189257;23;20087;-89
2022/01/16 04:02:16;;;;;;;82.85;30.45;;;;;;;;;;6188558;23;20015;-90
2022/01/16 04:04:43;;;;;;;84.68;32.80;;;;;;;;;;6214050;23;20032;-90
2022/01/16 04:07:13;;;;;;;92.28;29.13;;;;;;;;;;6188814;23;20013;-90
2022/01/16 04:09:40;;;;;;;85.13;33.58;;;;;;;;;;6188874;23;20027;-89
2022/01/16 04:12:08;;;;;;;103.50;33.80;;;;;;;;;;6188637;23;20016;-89
2022/01/16 04:17:23;;;;;;;87.43;32.10;;;;;;;;;;6214324;23;20020;-89
2022/01/16 04:19:49;;;;;;;96.95;33.30;;;;;;;;;;6214043;23;20074;-89
2022/01/16 04:22:15;;;;;;;110.25;36.03;;;;;;;;;;6213708;23;20398;-89
2022/01/16 04:24:41;;;;;;;81.80;32.58;;;;;;;;;;6214116;23;20402;-89
2022/01/16 04:27:10;;;;;;;99.68;35.85;;;;;;;;;;6188625;23;20443;-89
2022/01/16 04:29:36;;;;;;;105.30;33.60;;;;;;;;;;6189459;23;20017;-90
2022/01/16 04:32:02;;;;;;;81.68;33.58;;;;;;;;;;6188440;23;20023;-91
2022/01/16 04:34:28;;;;;;;99.50;32.35;;;;;;;;;;6189415;23;20390;-91
2022/01/16 04:36:55;;;;;;;106.90;36.10;;;;;;;;;;6140785;23;1123798;-91
2022/01/16 04:39:23;;;;;;;94.30;34.67;;;;;;;;;;6189440;23;20020;-91
2022/01/16 04:44:41;;;;;;;110.72;37.20;;;;;;;;;;6100070;23;20018;-91
2022/01/16 04:47:08;;;;;;;114.00;39.38;;;;;;;;;;6075901;23;20522;-91
2022/01/16 04:49:34;;;;;;;97.95;32.67;;;;;;;;;;6076141;23;20053;-91
2022/01/16 04:52:00;;;;;;;95.15;34.45;;;;;;;;;;6075972;23;20018;-91
2022/01/16 04:54:27;;;;;;;93.95;34.83;;;;;;;;;;6076160;23;20018;-91
2022/01/16 04:56:53;;;;;;;114.93;35.85;;;;;;;;;;6075884;23;20018;-91
2022/01/16 04:59:19;;;;;;;112.65;35.28;;;;;;;;;;6076058;23;20022;-91
2022/01/16 05:01:46;;;;;;;122.93;36.92;;;;;;;;;;6075758;23;20056;-91
2022/01/16 05:04:12;;;;;;;100.57;35.05;;;;;;;;;;6075611;23;20025;-91
2022/01/16 05:06:38;;;;;;;110.28;37.28;;;;;;;;;;6075538;23;20093;-91
2022/01/16 05:09:04;;;;;;;117.03;38.45;;;;;;;;;;6076136;23;20025;-91
2022/01/16 05:11:31;;;;;;;122.57;38.58;;;;;;;;;;6076624;23;20037;-91
2022/01/16 05:16:37;;;;;;;111.60;38.45;;;;;;;;;;6100049;23;20022;-90
2022/01/16 05:19:08;;;;;;;112.60;37.22;;;;;;;;;;6076234;23;20077;-91
2022/01/16 05:21:34;;;;;;;95.80;35.25;;;;;;;;;;6135921;23;20052;-90
2022/01/16 05:24:03;;;;;;;102.65;37.78;;;;;;;;;;6190713;23;20027;-91
2022/01/16 05:26:29;;;;;;;120.05;38.85;;;;;;;;;;6189649;23;20024;-90
2022/01/16 05:28:56;;;;;;;109.88;34.63;;;;;;;;;;6216063;23;20016;-91
2022/01/16 05:31:22;;;;;;;105.38;39.88;;;;;;;;;;6189526;23;20044;-90
2022/01/16 05:33:48;;;;;;;146.57;40.22;;;;;;;;;;6214424;23;20021;-90
2022/01/16 05:36:14;;;;;;;135.77;41.92;;;;;;;;;;6189581;23;20023;-90
2022/01/16 05:38:40;;;;;;;133.27;40.65;;;;;;;;;;6189979;23;20052;-90
2022/01/16 05:41:06;;;;;;;114.68;38.75;;;;;;;;;;6189692;23;20446;-91
2022/01/16 05:43:33;;;;;;;164.88;42.35;;;;;;;;;;6191236;23;20024;-90
2022/01/16 05:45:59;;;;;;;105.28;37.80;;;;;;;;;;6192211;23;20016;-90
2022/01/16 05:48:26;;;;;;;125.00;38.95;;;;;;;;;;6192038;23;20022;-91
2022/01/16 05:50:52;;;;;;;128.23;39.65;;;;;;;;;;6191598;23;20410;-90
2022/01/16 05:53:18;;;;;;;123.82;37.65;;;;;;;;;;6192085;23;20021;-90
2022/01/16 05:55:44;;;;;;;136.32;43.05;;;;;;;;;;6191778;23;20402;-91
2022/01/16 05:58:10;;;;;;;123.45;43.80;;;;;;;;;;6191579;23;20473;-90
2022/01/16 06:00:37;;;;;;;110.20;38.75;;;;;;;;;;6216467;23;20052;-89
2022/01/16 06:03:04;;;;;;;144.23;43.08;;;;;;;;;;6191489;23;20096;-90
2022/01/16 06:05:30;;;;;;;125.85;41.97;;;;;;;;;;6192585;23;20020;-90
2022/01/16 06:07:59;;;;;;;125.18;42.20;;;;;;;;;;6191320;23;20009;-90
2022/01/16 06:10:25;;;;;;;127.82;44.88;;;;;;;;;;6192332;23;20020;-90
2022/01/16 06:12:52;;;;;;;148.57;43.58;;;;;;;;;;6215990;23;20023;-89
2022/01/16 06:15:19;;;;;;;107.80;39.17;;;;;;;;;;6190454;23;20354;-89
2022/01/16 06:17:45;;;;;;;122.60;41.55;;;;;;;;;;6191145;23;20024;-89
2022/01/16 06:20:11;;;;;;;118.47;39.85;;;;;;;;;;6190968;23;20012;-89
2022/01/16 06:22:37;;;;;;;125.45;39.95;;;;;;;;;;6191006;23;20055;-88
2022/01/16 06:25:03;;;;;;;116.80;41.20;;;;;;;;;;6190794;23;20466;-90
2022/01/16 06:27:29;;;;;;;132.93;42.50;;;;;;;;;;6190471;23;20012;-90
2022/01/16 06:29:55;;;;;;;133.25;40.97;;;;;;;;;;6190622;23;20017;-89
2022/01/16 06:32:21;;;;;;;117.93;41.33;;;;;;;;;;6190251;23;20012;-89
2022/01/16 06:34:47;;;;;;;127.57;41.72;;;;;;;;;;6190709;23;20405;-89
2022/01/16 06:37:13;;;;;;;124.82;42.92;;;;;;;;;;6190385;23;20021;-89
2022/01/16 06:39:40;;;;;;;132.60;44.08;;;;;;;;;;6191307;23;20032;-92
2022/01/16 06:42:06;;;;;;;109.50;40.47;;;;;;;;;;6191486;23;20075;-92
2022/01/16 06:44:32;;;;;;;131.90;43.40;;;;;;;;;;6191516;23;20039;-91
2022/01/16 06:46:58;;;;;;;133.75;43.30;;;;;;;;;;6191043;23;20016;-92
2022/01/16 06:49:24;;;;;;;132.57;45.90;;;;;;;;;;6191951;23;20017;-91
2022/01/16 06:51:50;;;;;;;109.70;36.80;;;;;;;;;;6190897;23;20044;-92
2022/01/16 06:54:16;;;;;;;111.63;40.38;;;;;;;;;;6190322;23;20078;-92
2022/01/16 06:56:42;;;;;;;118.53;44.13;;;;;;;;;;6190810;23;20028;-92
2022/01/16 06:59:08;;;;;;;119.40;42.38;;;;;;;;;;6190652;23;20023;-91
2022/01/16 07:01:34;;;;;;;121.97;42.22;;;;;;;;;;6190753;23;20017;-92
2022/01/16 07:04:00;;;;;;;124.93;42.85;;;;;;;;;;6190521;23;20016;-91
2022/01/16 07:06:26;;;;;;;122.20;43.38;;;;;;;;;;6190775;23;20012;-92
2022/01/16 07:08:52;;;;;;;105.03;41.60;;;;;;;;;;6190169;23;20023;-92
2022/01/16 07:11:18;;;;;;;126.10;44.55;;;;;;;;;;6215578;23;20071;-92
2022/01/16 07:13:45;;;;;;;140.75;41.88;;;;;;;;;;6191158;23;20469;-91
2022/01/16 07:16:11;;;;;;;118.18;42.58;;;;;;;;;;6190725;23;20058;-92
2022/01/16 07:18:37;;;;;;;126.90;41.13;;;;;;;;;;6215595;23;20023;-91
2022/01/16 07:21:05;;;;;;;118.57;43.95;;;;;;;;;;6190832;23;20017;-91
2022/01/16 07:23:31;;;;;;;128.52;45.35;;;;;;;;;;6191647;23;20039;-91
2022/01/16 07:25:57;;;;;;;110.15;42.83;;;;;;;;;;6191027;23;20020;-91
2022/01/16 07:28:23;;;;;;;107.75;40.88;;;;;;;;;;6190086;23;20358;-89
2022/01/16 07:30:49;;;;;;;102.35;40.90;;;;;;;;;;6190328;23;20012;-89
2022/01/16 07:33:15;;;;;;;95.82;39.22;;;;;;;;;;6190288;23;20023;-89
2022/01/16 07:35:41;;;;;;;111.18;41.17;;;;;;;;;;6190645;23;20390;-90
2022/01/16 07:38:08;;;;;;;91.07;39.67;;;;;;;;;;6190179;23;20017;-90
2022/01/16 07:40:34;;;;;;;74.93;34.40;;;;;;;;;;6216431;23;20027;-89
2022/01/16 07:43:00;;;;;;;88.63;37.80;;;;;;;;;;6216382;23;20021;-89
2022/01/16 07:45:26;;;;;;;84.97;37.42;;;;;;;;;;6190780;23;20012;-89
2022/01/16 07:47:52;;;;;;;77.65;32.88;;;;;;;;;;6190098;23;20024;-89
2022/01/16 07:50:19;;;;;;;66.90;30.05;;;;;;;;;;6215751;23;20070;-89
2022/01/16 07:52:45;;;;;;;68.35;32.70;;;;;;;;;;6191227;23;20121;-89
2022/01/16 07:55:11;;;;;;;62.95;30.55;;;;;;;;;;6216137;23;20044;-90
2022/01/16 07:57:37;;;;;;;74.75;31.95;;;;;;;;;;6190785;23;20020;-89
2022/01/16 08:00:04;;;;;;;68.50;31.52;;;;;;;;;;6191122;23;20066;-89
2022/01/16 08:02:30;;;;;;;54.03;26.42;;;;;;;;;;6190796;23;20012;-89
2022/01/16 08:04:56;;;;;;;63.45;30.73;;;;;;;;;;6191681;23;20017;-90
2022/01/16 08:07:22;;;;;;;69.55;31.35;;;;;;;;;;6216305;23;20017;-89
2022/01/16 08:09:49;;;;;;;59.33;30.88;;;;;;;;;;6191733;23;20479;-89
2022/01/16 08:12:15;;;;;;;58.83;29.42;;;;;;;;;;6192627;23;20013;-89
2022/01/16 08:14:41;;;;;;;61.75;30.80;;;;;;;;;;6192811;23;20339;-89
2022/01/16 08:17:07;;;;;;;59.20;28.77;;;;;;;;;;6191900;23;20012;-88
2022/01/16 08:19:34;;;;;;;63.17;27.45;;;;;;;;;;6190967;23;20035;-89
2022/01/16 08:22:00;;;;;;;60.78;28.55;;;;;;;;;;6187369;23;20027;-90
2022/01/16 08:24:26;;;;;;;65.93;28.33;;;;;;;;;;6211672;23;20104;-88
2022/01/16 08:26:52;;;;;;;44.72;22.02;;;;;;;;;;6186838;23;20035;-89
2022/01/16 08:29:19;;;;;;;55.78;28.15;;;;;;;;;;6190288;23;20027;-89
2022/01/16 08:31:45;;;;;;;55.15;27.60;;;;;;;;;;6190702;23;20013;-89
2022/01/16 08:34:11;;;;;;;57.78;27.77;;;;;;;;;;6217202;23;20469;-89
2022/01/16 08:36:38;;;;;;;59.13;26.77;;;;;;;;;;6192467;23;20044;-90
2022/01/16 08:39:05;;;;;;;54.38;27.17;;;;;;;;;;6191580;23;20112;-90
2022/01/16 08:41:32;;;;;;;52.28;26.70;;;;;;;;;;6215938;23;20024;-89
2022/01/16 08:43:58;;;;;;;56.72;27.70;;;;;;;;;;6216103;23;20027;-89
2022/01/16 08:46:24;;;;;;;46.28;26.45;;;;;;;;;;6191683;23;20020;-89
2022/01/16 08:48:51;;;;;;;55.78;25.85;;;;;;;;;;6194661;23;20021;-88
2022/01/16 08:51:17;;;;;;;48.33;27.83;;;;;;;;;;6194585;23;20013;-88
2022/01/16 08:53:45;;;;;;;43.78;25.35;;;;;;;;;;6218835;23;20050;-89
2022/01/16 08:56:11;;;;;;;47.88;26.15;;;;;;;;;;6190743;23;20044;-89
2022/01/16 08:58:37;;;;;;;48.55;27.60;;;;;;;;;;6190515;23;20020;-89
2022/01/16 09:01:03;;;;;;;41.63;24.90;;;;;;;;;;6191129;23;20434;-88
2022/01/16 09:03:30;;;;;;;40.83;25.17;;;;;;;;;;6216649;23;20080;-90
2022/01/16 09:05:56;;;;;;;45.38;22.48;;;;;;;;;;6193638;23;20052;-89
2022/01/16 09:08:22;;;;;;;49.70;24.25;;;;;;;;;;6190452;23;20020;-88
2022/01/16 09:10:48;;;;;;;45.40;23.80;;;;;;;;;;6193341;23;20013;-88
2022/01/16 09:13:17;;;;;;;44.45;23.52;;;;;;;;;;6193616;23;20020;-89
2022/01/16 09:15:45;;;;;;;44.28;21.05;;;;;;;;;;6192012;23;20016;-89
2022/01/16 09:18:11;;;;;;;39.13;22.02;;;;;;;;;;6190336;23;20020;-89
2022/01/16 09:20:38;;;;;;;40.25;21.38;;;;;;;;;;6220126;23;20016;-89
2022/01/16 09:23:04;;;;;;;41.05;21.17;;;;;;;;;;6192259;23;20100;-89
2022/01/16 09:25:30;;;;;;;37.58;22.42;;;;;;;;;;6195469;23;20044;-89
2022/01/16 09:27:57;;;;;;;40.90;22.13;;;;;;;;;;6192000;23;20008;-90
2022/01/16 09:30:26;;;;;;;45.72;22.05;;;;;;;;;;6187546;23;20111;-89
2022/01/16 09:32:52;;;;;;;43.42;22.02;;;;;;;;;;6189791;23;20017;-88
2022/01/16 09:35:18;;;;;;;44.22;22.95;;;;;;;;;;6213960;23;20100;-89
2022/01/16 09:37:45;;;;;;;42.45;22.67;;;;;;;;;;6190513;23;20013;-90
2022/01/16 09:40:13;;;;;;;54.58;24.27;;;;;;;;;;6189808;23;20099;-90
2022/01/16 09:42:40;;;;;;;44.38;21.05;;;;;;;;;;6189817;23;20023;-90
2022/01/16 09:45:07;;;;;;;39.72;22.38;;;;;;;;;;6212085;23;20008;-89
2022/01/16 09:47:33;;;;;;;43.00;22.35;;;;;;;;;;6184479;23;20303;-89
2022/01/16 09:49:59;;;;;;;42.78;22.75;;;;;;;;;;6184226;23;20021;-91
2022/01/16 09:52:26;;;;;;;38.95;22.20;;;;;;;;;;6208736;23;20028;-92
2022/01/16 09:54:52;;;;;;;42.05;19.75;;;;;;;;;;6209280;23;20457;-89
2022/01/16 09:57:18;;;;;;;39.95;20.30;;;;;;;;;;6183613;23;20287;-89
2022/01/16 09:59:45;;;;;;;40.35;21.38;;;;;;;;;;6184163;23;20016;-89
2022/01/16 10:02:11;;;;;;;36.63;21.52;;;;;;;;;;6183677;23;20019;-91
2022/01/16 10:04:44;;;;;;;37.08;21.73;;;;;;;;;;6184105;23;20016;-91
2022/01/16 10:07:11;;;;;;;44.20;20.58;;;;;;;;;;6208771;23;20095;-91
2022/01/16 10:09:38;;;;;;;34.85;20.27;;;;;;;;;;6208243;23;20013;-91
2022/01/16 10:12:13;;;;;;;37.97;22.58;;;;;;;;;;6185877;23;20090;-91
2022/01/16 10:14:47;;;;;;;40.55;20.48;;;;;;;;;;6187458;23;20013;-91
2022/01/16 10:17:15;;;;;;;44.00;19.25;;;;;;;;;;6183757;23;20090;-89
2022/01/16 10:19:41;;;;;;;43.75;21.65;;;;;;;;;;6189047;23;20092;-89
2022/01/16 10:22:12;;;;;;;38.80;19.58;;;;;;;;;;6189987;23;20474;-89
2022/01/16 10:24:39;;;;;;;39.33;20.92;;;;;;;;;;6214903;23;20012;-90
2022/01/16 10:27:08;;;;;;;42.35;19.98;;;;;;;;;;6189848;23;20099;-90
2022/01/16 10:29:38;;;;;;;37.63;20.85;;;;;;;;;;6189904;23;20346;-90
2022/01/16 10:32:12;;;;;;;39.60;19.00;;;;;;;;;;6191729;23;20071;-90
2022/01/16 10:34:38;;;;;;;37.05;19.58;;;;;;;;;;6190725;23;20158;-90
2022/01/16 10:37:21;;;;;;;43.08;19.27;;;;;;;;;;6215926;23;20054;-89
2022/01/16 10:39:54;;;;;;;32.90;17.73;;;;;;;;;;6191446;23;20021;-89
2022/01/16 10:42:20;;;;;;;41.28;17.23;;;;;;;;;;6216121;23;20020;-89
2022/01/16 10:44:46;;;;;;;32.40;17.25;;;;;;;;;;6191234;23;20036;-89
2022/01/16 10:47:23;;;;;;;33.63;17.10;;;;;;;;;;6191069;23;20015;-89
2022/01/16 10:50:06;;;;;;;35.03;16.58;;;;;;;;;;6190897;23;20017;-89
2022/01/16 10:52:33;;;;;;;28.60;16.17;;;;;;;;;;6191200;23;20465;-89
2022/01/16 10:55:06;;;;;;;32.25;16.02;;;;;;;;;;6217058;23;20251;-89
2022/01/16 10:57:35;;;;;;;31.50;16.55;;;;;;;;;;6191327;23;20024;-89
2022/01/16 11:00:09;;;;;;;24.45;12.90;;;;;;;;;;6190726;23;20331;-88
2022/01/16 11:02:36;;;;;;;26.98;14.35;;;;;;;;;;6190412;23;20585;-89
2022/01/16 11:05:09;;;;;;;27.13;14.73;;;;;;;;;;6215250;23;20020;-89
2022/01/16 11:07:35;;;;;;;31.33;14.32;;;;;;;;;;6191354;23;20322;-88
2022/01/16 11:10:12;;;;;;;23.92;13.20;;;;;;;;;;6191142;23;20021;-89
2022/01/16 11:12:38;;;;;;;20.35;13.63;;;;;;;;;;6216849;23;20027;-89
2022/01/16 11:15:04;;;;;;;28.65;14.32;;;;;;;;;;6190505;23;20020;-89
2022/01/16 11:17:30;;;;;;;26.65;13.77;;;;;;;;;;6191540;23;20052;-88
2022/01/16 11:19:56;;;;;;;22.50;12.27;;;;;;;;;;6192091;23;20009;-89
2022/01/16 11:22:34;;;;;;;21.75;12.68;;;;;;;;;;6216503;23;20076;-89
2022/01/16 11:25:11;;;;;;;18.92;11.70;;;;;;;;;;6191730;23;20048;-89
2022/01/16 11:27:37;;;;;;;28.63;11.70;;;;;;;;;;6191826;23;20019;-89
2022/01/16 11:30:04;;;;;;;23.35;10.93;;;;;;;;;;6191594;23;20064;-89
2022/01/16 11:32:30;;;;;;;19.48;11.43;;;;;;;;;;6192226;23;20434;-89
2022/01/16 11:34:57;;;;;;;23.40;10.48;;;;;;;;;;6191288;23;20126;-89
2022/01/16 11:37:23;;;;;;;25.70;10.93;;;;;;;;;;6192027;23;20013;-89
2022/01/16 11:39:49;;;;;;;42.35;12.05;;;;;;;;;;6191562;23;20031;-89
2022/01/16 11:42:22;;;;;;;18.30;10.45;;;;;;;;;;6191080;23;20015;-89
2022/01/16 11:44:52;;;;;;;19.45;9.95;;;;;;;;;;6216126;23;20087;-89
2022/01/16 11:47:18;;;;;;;25.42;9.43;;;;;;;;;;6191307;23;20363;-88
2022/01/16 11:49:44;;;;;;;24.05;9.00;;;;;;;;;;6216325;23;20012;-89
2022/01/16 11:52:18;;;;;;;14.93;8.30;;;;;;;;;;6216793;23;20016;-89
2022/01/16 11:54:45;;;;;;;20.25;9.77;;;;;;;;;;6191664;23;20047;-88
2022/01/16 11:57:24;;;;;;;14.25;7.47;;;;;;;;;;6192170;23;20048;-89
2022/01/16 11:59:53;;;;;;;29.23;9.48;;;;;;;;;;6217113;23;20088;-88
2022/01/16 12:02:24;;;;;;;15.45;9.25;;;;;;;;;;6216381;23;20462;-89
2022/01/16 12:04:51;;;;;;;21.67;9.05;;;;;;;;;;6216338;23;20016;-88
2022/01/16 12:07:20;;;;;;;13.10;6.90;;;;;;;;;;6190634;23;20016;-88
2022/01/16 12:09:51;;;;;;;18.98;8.85;;;;;;;;;;6191243;23;20070;-89
2022/01/16 12:12:17;;;;;;;15.57;8.50;;;;;;;;;;6190971;23;20409;-89
2022/01/16 12:15:01;;;;;;;14.77;7.47;;;;;;;;;;6191468;23;20485;-92
2022/01/16 12:17:30;;;;;;;;;;;7.10;99.90;;;;;;6192559;23;20035;-89
2022/01/16 12:19:57;;;;;;;15.50;7.65;;;;;;;;;;6191636;23;20253;-89
2022/01/16 12:22:46;;;;;;;22.75;9.07;;;7.10;99.90;;;;;;6217321;23;20050;-89
2022/01/16 12:25:30;;;;;;;17.48;7.50;;;;;;;;;;6191286;23;20012;-89
2022/01/16 12:27:56;;;;;;;11.10;7.03;;;;;;;;;;6193176;23;20016;-90
2022/01/16 12:30:27;;;;;;;15.32;7.68;;;;;;;;;;6193813;23;20012;-89
2022/01/16 12:32:56;;;;;;;15.05;6.95;;;;;;;;;;6220522;23;20288;-91
2022/01/16 12:35:41;;;;;;;16.55;7.50;;;;;;;;;;6219061;23;20020;-90
2022/01/16 12:38:11;;;;;;;15.57;7.70;;;;;;;;;;6218767;23;20016;-90
2022/01/16 12:40:38;;;;;;;16.08;6.90;;;;;;;;;;6193943;23;20016;-89
2022/01/16 12:43:09;;;;;;;14.85;7.60;;;;;;;;;;6220298;23;20071;-90
2022/01/16 12:45:39;;;;;;;14.65;7.38;;;;;;;;;;6195249;23;20427;-91
2022/01/16 12:48:06;;;;;;;20.30;6.32;;;;;;;;;;6197085;23;20068;-89
2022/01/16 12:50:32;;;;;;;16.95;7.22;;;;;;;;;;6196364;23;20048;-91
2022/01/16 12:52:58;;;;;;;14.65;7.03;;;;;;;;;;6221493;23;20013;-91
2022/01/16 12:55:28;;;;;;;14.93;6.65;;;;;;;;;;6196610;23;20020;-90
2022/01/16 12:57:54;;;;;;;10.27;6.38;;;;;;;;;;6195186;23;20017;-91
2022/01/16 13:00:20;;;;;;;12.07;7.22;;;;;;;;;;6195208;23;20454;-89
2022/01/16 13:02:53;;;;;;;18.30;7.68;;;;;;;;;;6193985;23;20016;-92
2022/01/16 13:05:20;;;;;;;18.67;7.60;;;;;;;;;;6193317;23;20028;-91
2022/01/16 13:07:46;;;;;;;13.23;6.05;;;;;;;;;;6194536;23;20314;-91
2022/01/16 13:10:15;;;;;;;16.48;6.57;;;;;;;;;;6193210;23;20089;-91
2022/01/16 13:12:41;;;;;;;25.42;8.00;;;;;;;;;;6217088;23;20020;-91
2022/01/16 13:15:10;;;;;;;18.15;7.45;;;;;;;;;;6192697;23;20040;-91
2022/01/16 13:17:36;;;;;;;15.10;7.65;;;;;;;;;;6190933;23;20063;-90
2022/01/16 13:20:04;;;;;;;15.07;7.13;;;;;;;;;;6189132;23;20087;-90
2022/01/16 13:22:32;;;;;;;13.95;7.00;;;;;;;;;;6163839;23;20088;-89
2022/01/16 13:25:02;;;;;;;19.27;8.25;;;;;;;;;;6188965;23;20068;-90
2022/01/16 13:27:31;;;;;;;17.20;8.30;;;;;;;;;;6189575;23;20055;-89
2022/01/16 13:29:57;;;;;;;14.60;7.72;;;;;;;;;;6189584;23;20018;-89
2022/01/16 13:32:28;;;;;;;12.10;7.45;;;;;;;;;;6188569;23;20164;-88
2022/01/16 13:34:54;;;;;;;17.67;8.68;;;;;;;;;;6213881;23;20017;-89
2022/01/16 13:37:28;;;;;;;13.23;7.72;;;;;;;;;;6190233;23;20091;-89
2022/01/16 13:39:59;;;;;;;28.10;8.25;;;;;;;;;;6188908;23;20016;-89
2022/01/16 13:42:51;;;;;;;20.45;7.75;;;;;;;;;;6189303;23;20180;-89
2022/01/16 13:45:39;;;;;;;19.70;6.03;;;;;;;;;;6186181;23;20020;-88
2022/01/16 13:48:12;;;;;;;12.77;7.07;;;;;;;;;;6185911;23;20095;-89
2022/01/16 13:50:38;;;;;;;11.95;6.57;;;;;;;;;;6186183;23;20051;-88
2022/01/16 13:53:06;;;;;;;16.50;6.90;;;;;;;;;;6185933;23;20013;-89
2022/01/16 13:55:33;;;;;;;17.67;8.52;;;;;;;;;;6189356;23;20013;-89
2022/01/16 13:58:12;;;;;;;16.00;8.43;;;;;;;;;;6195298;23;20027;-89
2022/01/16 14:00:38;;;;;;;18.92;8.68;;;;;;;;;;6188177;23;20327;-89
2022/01/16 14:03:12;;;;;;;11.88;6.53;;;;;;;;;;6186773;23;20315;-89
2022/01/16 14:05:45;;;;;;;15.90;7.55;;;;;;;;;;6190211;23;20100;-90
2022/01/16 14:08:17;;;;;;;22.63;7.97;;;;;;;;;;6189565;23;20064;-89
2022/01/16 14:10:43;;;;;;;10.98;5.82;;;;;;;;;;6189234;23;20070;-89
2022/01/16 14:13:10;;;;;;;18.35;8.45;;;;;;;;;;6194245;23;20052;-89
2022/01/16 14:15:40;;;;;;;26.85;8.93;;;;;;;;;;6191840;23;20021;-90
2022/01/16 14:18:13;;;;;;;15.98;7.85;;;;;;;;;;6192845;23;20074;-90
2022/01/16 14:20:49;;;;;;;21.52;7.93;;;;;;;;;;6191058;23;20103;-90
2022/01/16 14:23:15;;;;;;;16.02;6.00;;;;;;;;;;6190964;23;20100;-90
2022/01/16 14:25:41;;;;;;;14.13;6.30;;;;;;;;;;6191037;23;20012;-90
2022/01/16 14:28:08;;;;;;;17.23;7.63;;;;;;;;;;6216212;23;20016;-90
2022/01/16 14:30:34;;;;;;;15.30;7.75;;;;;;;;;;6216144;23;20027;-90
2022/01/16 14:33:00;;;;;;;12.75;7.78;;;;;;;;;;6191194;23;20051;-89
2022/01/16 14:35:26;;;;;;;14.00;7.72;;;;;;;;;;6216685;23;20017;-89
2022/01/16 14:37:52;;;;;;;18.75;7.82;;;;;;;;;;6191661;23;20016;-90
2022/01/16 14:40:18;;;;;;;24.45;9.45;;;;;;;;;;6191293;23;20013;-90
2022/01/16 14:42:46;;;;;;;18.80;8.23;;;;;;;;;;6216193;23;20488;-90
2022/01/16 14:45:13;;;;;;;17.23;9.00;;;;;;;;;;6191676;23;20024;-90
2022/01/16 14:47:39;;;;;;;28.08;8.95;;;;;;;;;;6191586;23;20016;-90
2022/01/16 14:50:07;;;;;;;17.73;9.82;;;;;;;;;;6192189;23;20016;-90
2022/01/16 14:52:33;;;;;;;20.65;9.38;;;;;;;;;;6192482;23;20454;-90
2022/01/16 14:54:59;;;;;;;17.05;8.50;;;;;;;;;;6191727;23;20024;-90
2022/01/16 14:57:25;;;;;;;23.00;10.00;;;;;;;;;;6191862;23;20017;-90
2022/01/16 14:59:54;;;;;;;17.40;8.15;;;;;;;;;;6191482;23;20017;-90
2022/01/16 15:02:20;;;;;;;19.70;9.65;;;;;;;;;;6191320;23;20439;-90
2022/01/16 15:04:47;;;;;;;19.33;10.02;;;;;;;;;;6216065;23;20099;-90